Flight Track Log - Related Links

Times and Time Zones

All times are in EDT time to prevent confusion due to time zone crossing. See the CCA1220 flight status page for this flight to view local times or setup timezone preferences in your user account.

Time Position Orientation Groundspeed Altitude Reporting Facility
EDT Latitude Longitude Course Direction KTS MPH feet Rate Location/Type
Wed 05:15:00 AM 38.4134 106.8070 74° East  Level Estimated
Wed 05:16:00 AM 38.4358 106.9106 75° East  Level Estimated
Wed 05:17:00 AM 38.4582 107.0142 75° East  Level Estimated
Wed 05:18:00 AM 38.4804 107.1179 75° East  Level Estimated
Wed 05:19:00 AM 38.5025 107.2217 75° East  Level Estimated
Wed 05:20:00 AM 38.5246 107.3255 75° East  Level Estimated
Wed 05:21:00 AM 38.5466 107.4294 75° East  Level Estimated
Wed 05:22:00 AM 38.5685 107.5334 75° East  Level Estimated
Wed 05:23:00 AM 38.5902 107.6374 75° East  Level Estimated
Wed 05:24:00 AM 38.6119 107.7415 75° East  Level Estimated
Wed 05:25:00 AM 38.6335 107.8456 75° East  Level Estimated
Wed 05:26:00 AM 38.6550 107.9498 75° East  Level Estimated
Wed 05:27:00 AM 38.6765 108.0541 75° East  Level Estimated
Wed 05:28:00 AM 38.6978 108.1584 75° East  Level Estimated
Wed 05:29:00 AM 38.7190 108.2628 75° East  Level Estimated
Wed 05:30:00 AM 38.7402 108.3673 75° East  Level Estimated
Wed 05:31:00 AM 38.7612 108.4718 75° East  Level Estimated
Wed 05:32:00 AM 38.7822 108.5764 76° East  Level Estimated
Wed 05:33:00 AM 38.8030 108.6810 76° East  Level Estimated
Wed 05:34:00 AM 38.8238 108.7857 76° East  Level Estimated
Wed 05:35:00 AM 38.8444 108.8905 76° East  Level Estimated
Wed 05:36:00 AM 38.8650 108.9953 76° East  Level Estimated
Wed 05:37:00 AM 38.8855 109.1002 76° East  Level Estimated
Wed 05:38:00 AM 38.9059 109.2052 76° East  Level Estimated
Wed 05:39:00 AM 38.9262 109.3102 76° East  Level Estimated
Wed 05:40:00 AM 38.9464 109.4152 76° East  Level Estimated
Wed 05:41:00 AM 38.9665 109.5204 76° East  Level Estimated
Wed 05:42:00 AM 38.9865 109.6256 76° East  Level Estimated
Wed 05:43:00 AM 39.0064 109.7308 76° East  Level Estimated
Wed 05:44:00 AM 39.0262 109.8361 76° East  Level Estimated
Wed 05:45:00 AM 39.0460 109.9415 76° East  Level Estimated
Wed 05:46:00 AM 39.0656 110.0469 76° East  Level Estimated
Wed 05:47:00 AM 39.0852 110.1524 77° East  Level Estimated
Wed 05:48:00 AM 39.1046 110.2579 77° East  Level Estimated
Wed 05:49:00 AM 39.1239 110.3635 77° East  Level Estimated
Wed 05:50:00 AM 39.1432 110.4692 77° East  Level Estimated
Wed 05:51:00 AM 39.1623 110.5749 77° East  Level Estimated
Wed 05:52:00 AM 39.1814 110.6807 77° East  Level Estimated
Wed 05:53:00 AM 39.2004 110.7865 77° East  Level Estimated
Wed 05:54:00 AM 39.2192 110.8924 77° East  Level Estimated
Wed 05:55:00 AM 39.2380 110.9983 77° East  Level Estimated
Wed 05:56:00 AM 39.2567 111.1043 77° East  Level Estimated
Wed 05:57:00 AM 39.2753 111.2104 77° East  Level Estimated
Wed 05:58:00 AM 39.2938 111.3165 77° East  Level Estimated
Wed 05:59:00 AM 39.3122 111.4226 77° East  Level Estimated
Wed 06:00:00 AM 39.3305 111.5289 77° East  Level Estimated
Wed 06:01:00 AM 39.3487 111.6351 77° East  Level Estimated
Wed 06:02:00 AM 39.3668 111.7415 78° East  Level Estimated
Wed 06:03:00 AM 39.3848 111.8479 78° East  Level Estimated
Wed 06:04:00 AM 39.4027 111.9543 78° East  Level Estimated
Wed 06:05:00 AM 39.4205 112.0608 78° East  Level Estimated
Wed 06:06:00 AM 39.4382 112.1674 78° East  Level Estimated
Wed 06:07:00 AM 39.4558 112.2740 78° East  Level Estimated
Wed 06:08:00 AM 39.4733 112.3806 78° East  Level Estimated
Wed 06:09:00 AM 39.4907 112.4873 78° East  Level Estimated
Wed 06:10:00 AM 39.5081 112.5941 78° East  Level Estimated
Wed 06:11:00 AM 39.5253 112.7009 78° East  Level Estimated
Wed 06:12:00 AM 39.5424 112.8078 78° East  Level Estimated
Wed 06:13:00 AM 39.5595 112.9147 78° East  Level Estimated
Wed 06:14:00 AM 39.5764 113.0217 78° East  Level Estimated
Wed 06:15:00 AM 39.5932 113.1287 78° East  Level Estimated
Wed 06:16:00 AM 39.6100 113.2358 78° East  Level Estimated
Wed 06:17:00 AM 39.6266 113.3429 79° East  Level Estimated
Wed 06:18:00 AM 39.6431 113.4501 79° East  Level Estimated
Wed 06:19:00 AM 39.6596 113.5574 79° East  Level Estimated
Wed 06:20:00 AM 39.6759 113.6646 79° East  Level Estimated
Wed 06:20:59 AM 40.3820 116.3390 79° East 365 420 13,400  Level FlightAware ADS-B
Wed 06:21:00 AM 39.6922 113.7720 79° East  Level Estimated
Wed 06:21:39 AM 40.3730 116.4130 99° East 365 420 13,400  Level FlightAware ADS-B
Wed 06:22:13 AM 40.3620 116.4980 100° East 355 409 12,800 -522 Descending FlightAware ADS-B
Wed 06:22:48 AM 40.3550 116.5570 99° East 350 403 12,800  Level FlightAware ADS-B
Wed 06:23:24 AM 40.3470 116.6210 99° East 350 403 12,800  Level FlightAware ADS-B
Wed 06:24:00 AM 40.3390 116.6850 99° East 350 403 12,800 -1,605 Level FlightAware ADS-B
Wed 06:26:00 AM 40.1776 116.6223 197° South  Level Estimated
Wed 06:27:00 AM 40.0969 116.5910 196° South  Level Estimated
Wed 06:28:00 AM 40.0801 116.5846 196° South  Level Estimated
Wed 06:28:38 AM 39.9660 116.7670 196° South 287 330 4,400  Level FlightAware ADS-B
Wed 06:29:09 AM 39.9310 116.7700 176° South 284 327 4,300 -780 Descending FlightAware ADS-B
Wed 06:30:18 AM 39.8500 116.7730 178° South 222 255 3,100 -1,021 Descending FlightAware ADS-B
Wed 06:30:43 AM 39.8250 116.7760 175° South 215 247 2,700 -750 Descending FlightAware ADS-B
Wed 06:30:58 AM 39.8100 116.7770 177° South 201 231 2,600 -343 Descending FlightAware ADS-B
Wed 06:31:18 AM 39.7970 116.7690 205° Southwest 189 217 2,500 -480 Descending FlightAware ADS-B
Wed 06:31:23 AM 39.7930 116.7620 233° Southwest 188 216 2,400 -182 Descending FlightAware ADS-B
Wed 06:31:51 AM 39.7830 116.7380 242° Southwest 188 216 2,400 -480 Level FlightAware ADS-B
Wed 06:32:13 AM 39.7900 116.7070 286° West 191 220 2,000 -421 Descending FlightAware ADS-B
Wed 06:32:48 AM 39.7950 116.6720 281° West 191 220 2,000  Level FlightAware ADS-B
Wed 06:33:08 AM 39.8270 116.6640 349° North 194 223 2,000  Level FlightAware ADS-B
Wed 06:33:23 AM 39.8360 116.6560 326° Northwest 194 223 2,000  Level FlightAware ADS-B
Wed 06:33:28 AM 39.8420 116.6520 333° Northwest 191 220 2,000  Level FlightAware ADS-B
Wed 06:33:53 AM 39.8590 116.6420 336° Northwest 191 220 2,000  Level FlightAware ADS-B
Wed 06:34:13 AM 39.8810 116.6450 North 187 215 2,000  Level FlightAware ADS-B
Wed 06:34:34 AM 39.8990 116.6430 355° North 181 208 2,000  Level FlightAware ADS-B
Wed 06:34:48 AM 39.9090 116.6410 351° North 180 207 2,000  Level FlightAware ADS-B
Wed 06:35:04 AM 39.9200 116.6390 352° North 180 207 2,000  Level FlightAware ADS-B
Wed 06:35:30 AM 39.9380 116.6370 355° North 180 207 2,000 -429 Level FlightAware ADS-B
Wed 06:36:28 AM 39.9880 116.6290 353° North 153 176 1,400 -615 Descending FlightAware ADS-B
Wed 06:36:48 AM 40.0020 116.6260 351° North 152 175 1,200 -686 Descending FlightAware ADS-B
Wed 06:37:03 AM 40.0130 116.6250 356° North 152 175 1,000 -279 Descending FlightAware ADS-B
Wed 06:37:31 AM 40.0290 116.6230 355° North 152 175 1,000  Level FlightAware ADS-B
Wed 06:40:00 AM 40.0801 116.5846 330° Northwest  Level Estimated
Wed 06:41:00 AM 40.0801 116.5846 288° West  Level Estimated
Wed 06:42:00 AM 40.0801 116.5846 288° West  Level Estimated
Wed 06:43:00 AM 40.0801 116.5846 288° West  Level Estimated
Wed 06:44:00 AM 40.0801 116.5846 288° West  Level Estimated
Wed 06:45:00 AM 40.0801 116.5846 288° West  Level Estimated
Wed 06:46:00 AM 40.0801 116.5846 288° West  Level Estimated
Wed 06:47:00 AM 40.0801 116.5846 288° West  Level Estimated
Wed 06:48:00 AM 40.0801 116.5846 288° West  Level Estimated
Wed 06:49:00 AM 40.0801 116.5846 288° West  Level Estimated
Wed 06:50:00 AM 40.0801 116.5846 288° West  Level Estimated
Wed 06:51:00 AM 40.0801 116.5846 288° West  Level Estimated
Wed 06:52:00 AM 40.0801 116.5846 288° West  Level Estimated
Wed 06:53:00 AM 40.0801 116.5846 288° West  Level Estimated
Wed 06:54:00 AM 40.0801 116.5846 288° West  Level Estimated
Wed 06:55:00 AM 40.0801 116.5846 288° West  Level Estimated
Wed 06:56:00 AM 40.0801 116.5846 288° West  Level Estimated
Wed 06:57:00 AM 40.0801 116.5846 288° West  Level Estimated
Wed 06:58:00 AM 40.0801 116.5846 288° West  Level Estimated
Wed 06:59:00 AM 40.0801 116.5846 288° West  Level Estimated
Wed 07:00:00 AM 40.0801 116.5846 288° West  Level Estimated
Wed 07:01:00 AM 40.0801 116.5846 288° West  Level Estimated
Wed 07:02:00 AM 40.0801 116.5846 288° West  Level Estimated
Wed 07:03:00 AM 40.0801 116.5846 288° West  Level Estimated

Login

Don't have an account? Register now (free) for customized features, flight alerts, and more!